Terminal Aerodrome Forecast
Issued by NWS Wakefield, VA

Home | Current Version | Previous Version | Text Only | Print | Product List | Glossary On
Versions: 1 2 3 4 5 6 7 8 9 10 11 12 13
000
FTUS41 KAKQ 252330
TAFSBY
TAF
KSBY 252330Z 2600/2624 18006KT P6SM FEW045
     FM260300 19006KT P6SM SCT200
     FM261100 23007KT P6SM FEW045
     FM261400 24005KT P6SM SKC
     FM262100 27009KT P6SM SKC=

USA.gov is the U.S. government's official web portal to all federal, state and local government web resources and services.